createdAt,value
2023-04-02T00:00:23.167Z,100
2023-04-02T00:15:45.495Z,100
2023-04-02T00:31:08.784Z,100
2023-04-02T00:46:32.088Z,100
2023-04-02T01:01:55.396Z,100
2023-04-02T01:17:18.715Z,100
2023-04-02T01:32:42.021Z,100
2023-04-02T01:48:05.312Z,100
2023-04-02T02:03:28.628Z,100
2023-04-02T02:18:51.928Z,100
2023-04-02T02:34:15.234Z,100
2023-04-02T02:49:38.533Z,100
2023-04-02T03:05:01.850Z,100
2023-04-02T03:20:25.143Z,100
2023-04-02T03:35:47.468Z,100
2023-04-02T03:51:10.784Z,100
2023-04-02T04:06:34.093Z,100
2023-04-02T04:21:57.392Z,100
2023-04-02T04:37:20.652Z,100
2023-04-02T04:52:43.924Z,100
2023-04-02T05:08:07.179Z,100
2023-04-02T05:23:30.447Z,100
2023-04-02T05:38:53.704Z,100
2023-04-02T05:54:16.981Z,100
2023-04-02T06:09:40.240Z,100
2023-04-02T06:25:03.505Z,100
2023-04-02T06:40:26.766Z,98.3
2023-04-02T06:55:49.060Z,96.6
2023-04-02T07:11:12.305Z,92.2
2023-04-02T07:26:35.583Z,91.3
2023-04-02T07:41:58.847Z,90
2023-04-02T07:57:22.104Z,87.4
2023-04-02T08:12:45.375Z,86
2023-04-02T08:28:08.617Z,84.7
2023-04-02T08:43:31.893Z,85
2023-04-02T08:58:55.143Z,87.1
2023-04-02T09:14:18.410Z,86.7
2023-04-02T09:29:41.680Z,85.7
2023-04-02T09:45:04.931Z,85.8
2023-04-02T10:00:28.204Z,85.5
2023-04-02T10:15:50.493Z,85.1
2023-04-02T10:31:13.748Z,83.3
2023-04-02T10:46:37.019Z,82.9
2023-04-02T11:02:00.281Z,82.8
2023-04-02T11:03:23.691Z,82.5
2023-04-02T11:04:47.093Z,83.3
2023-04-02T11:06:10.512Z,83.4
2023-04-02T11:07:33.922Z,82.1
2023-04-02T11:08:57.316Z,81.6
2023-04-02T11:10:20.743Z,81.5
2023-04-02T11:11:44.000Z,82
2023-04-02T11:13:07.561Z,81.6
2023-04-02T11:14:30.980Z,82.5
2023-04-02T11:15:53.396Z,80.9
2023-04-02T11:17:16.819Z,81.7
2023-04-02T11:18:40.219Z,80.9
2023-04-02T11:20:03.623Z,80.9
2023-04-02T11:21:27.043Z,81.6
2023-04-02T11:22:50.439Z,81.5
2023-04-02T11:24:13.864Z,80.4
2023-04-02T11:25:37.277Z,81
2023-04-02T11:27:00.677Z,80.6
2023-04-02T11:28:24.091Z,80.3
2023-04-02T11:29:47.503Z,80.3
2023-04-02T11:31:10.901Z,80.2
2023-04-02T11:32:34.303Z,80
2023-04-02T11:33:56.741Z,79.6
2023-04-02T11:35:20.139Z,79.6
2023-04-02T11:36:43.559Z,79.6
2023-04-02T11:38:06.954Z,79.9
2023-04-02T11:39:30.387Z,80.3
2023-04-02T11:40:53.798Z,80.1
2023-04-02T11:42:17.185Z,79.9
2023-04-02T11:43:40.603Z,78.8
2023-04-02T11:45:04.006Z,79.1
2023-04-02T11:46:27.417Z,79.1
2023-04-02T11:47:50.835Z,77.9
2023-04-02T11:49:14.242Z,78.3
2023-04-02T11:50:37.638Z,76.9
2023-04-02T11:52:00.063Z,77.2
2023-04-02T11:53:23.483Z,76.4
2023-04-02T11:54:46.884Z,76.4
2023-04-02T11:56:10.295Z,76.6
2023-04-02T11:57:33.704Z,77.1
2023-04-02T11:58:57.125Z,77.8
2023-04-02T12:00:20.518Z,77.4
2023-04-02T12:01:43.930Z,76.9
2023-04-02T12:03:07.346Z,76
2023-04-02T12:04:30.753Z,76.5
2023-04-02T12:05:54.165Z,76.8
2023-04-02T12:07:17.569Z,77.9
2023-04-02T12:08:40.970Z,76.6
2023-04-02T12:10:03.392Z,77.9
2023-04-02T12:11:26.800Z,76.4
2023-04-02T12:12:50.207Z,77.3
2023-04-02T12:14:13.624Z,78.5
2023-04-02T12:15:37.040Z,76.9
2023-04-02T12:17:00.454Z,76.7
2023-04-02T12:18:23.870Z,76.1
2023-04-02T12:19:47.263Z,76.5
2023-04-02T12:21:10.680Z,75.7
2023-04-02T12:22:34.087Z,75.3
2023-04-02T12:23:57.504Z,74.8
2023-04-02T12:25:20.919Z,75.7
2023-04-02T12:26:44.322Z,76.4
2023-04-02T12:28:06.753Z,76
2023-04-02T12:29:30.155Z,76.1
2023-04-02T12:30:53.563Z,76.2
2023-04-02T12:32:16.973Z,76.8
2023-04-02T12:33:40.388Z,76.7
2023-04-02T12:35:03.799Z,76.9
2023-04-02T12:36:27.197Z,75.5
2023-04-02T12:37:50.612Z,75.5
2023-04-02T12:39:14.031Z,76.8
2023-04-02T12:40:37.431Z,75.6
2023-04-02T12:42:00.849Z,75.5
2023-04-02T12:43:24.256Z,75.5
2023-04-02T12:44:47.646Z,75.6
2023-04-02T12:46:10.087Z,75.4
2023-04-02T12:48:56.904Z,76
2023-04-02T12:50:20.301Z,74.6
2023-04-02T12:51:43.711Z,75
2023-04-02T12:53:07.124Z,74.3
2023-04-02T12:54:30.550Z,74.7
2023-04-02T12:55:53.963Z,73.3
2023-04-02T12:57:17.369Z,73.2
2023-04-02T12:58:40.763Z,72
2023-04-02T13:00:04.174Z,73
2023-04-02T13:01:27.599Z,72.5
2023-04-02T13:02:50.998Z,72
2023-04-02T13:04:13.421Z,71.5
2023-04-02T13:05:36.838Z,71
2023-04-02T13:07:00.248Z,71.2
2023-04-02T13:08:23.654Z,70.7
2023-04-02T13:09:47.060Z,69.2
2023-04-02T13:11:10.479Z,70.6
2023-04-02T13:12:32.895Z,70.6
2023-04-02T13:13:56.308Z,70.1
2023-04-02T13:15:19.725Z,69.5
2023-04-02T13:16:43.134Z,69
2023-04-02T13:18:06.547Z,68.4
2023-04-02T13:19:29.965Z,68.5
2023-04-02T13:20:53.368Z,68.1
2023-04-02T13:22:16.765Z,68.6
2023-04-02T13:23:40.180Z,68.8
2023-04-02T13:25:03.604Z,68.8
2023-04-02T13:26:26.997Z,69
2023-04-02T13:27:50.417Z,69.2
2023-04-02T13:29:13.822Z,69.6
2023-04-02T13:30:36.243Z,70.4
2023-04-02T13:31:59.649Z,71.6
2023-04-02T13:33:23.059Z,72.4
2023-04-02T13:34:46.463Z,72.8
2023-04-02T13:36:09.875Z,72.9
2023-04-02T13:37:33.279Z,73.4
2023-04-02T13:38:56.692Z,73.7
2023-04-02T13:40:20.098Z,73.5
2023-04-02T13:41:43.504Z,74.2
2023-04-02T13:43:06.908Z,74
2023-04-02T13:44:30.338Z,74.2
2023-04-02T13:45:53.740Z,73.1
2023-04-02T13:47:17.138Z,73
2023-04-02T13:48:39.570Z,72.7
2023-04-02T13:50:02.983Z,73.2
2023-04-02T13:51:26.396Z,73.1
2023-04-02T13:52:49.798Z,71.9
2023-04-02T13:54:13.208Z,72.5
2023-04-02T13:55:36.627Z,71.9
2023-04-02T13:57:00.039Z,73.3
2023-04-02T13:58:23.448Z,72.6
2023-04-02T13:59:46.849Z,71.9
2023-04-02T14:01:10.266Z,72.2
2023-04-02T14:02:33.665Z,71.8
2023-04-02T14:03:57.079Z,72.8
2023-04-02T14:05:20.488Z,72.8
2023-04-02T14:06:42.903Z,72.5
2023-04-02T14:08:06.315Z,72.4
2023-04-02T14:09:29.720Z,72.5
2023-04-02T14:10:53.138Z,71.8
2023-04-02T14:12:16.531Z,71.7
2023-04-02T14:13:39.954Z,71.6
2023-04-02T14:15:03.365Z,72
2023-04-02T14:16:26.776Z,71.7
2023-04-02T14:17:50.180Z,72
2023-04-02T14:19:13.585Z,72
2023-04-02T14:20:37.010Z,71.5
2023-04-02T14:22:00.400Z,71.7
2023-04-02T14:23:23.805Z,72.4
2023-04-02T14:24:46.238Z,72.7
2023-04-02T14:26:09.670Z,70.6
2023-04-02T14:27:33.068Z,70.1
2023-04-02T14:28:56.475Z,70.8
2023-04-02T14:30:19.885Z,71.7
2023-04-02T14:31:43.287Z,71
2023-04-02T14:33:06.687Z,71
2023-04-02T14:34:30.108Z,70.4
2023-04-02T14:35:53.517Z,71.5
2023-04-02T14:37:16.943Z,70.1
2023-04-02T14:38:40.356Z,69.4
2023-04-02T14:40:03.760Z,69.7
2023-04-02T14:41:27.168Z,68.6
2023-04-02T14:42:49.583Z,70.3
2023-04-02T14:44:13.006Z,69.9
2023-04-02T14:45:36.412Z,69.7
2023-04-02T14:46:59.819Z,69.6
2023-04-02T14:48:23.227Z,69.8
2023-04-02T14:49:46.642Z,69.8
2023-04-02T14:51:10.050Z,70.1
2023-04-02T14:52:33.459Z,69.1
2023-04-02T14:53:56.860Z,68.7
2023-04-02T14:55:20.269Z,69.2
2023-04-02T14:56:43.687Z,67.2
2023-04-02T14:58:07.085Z,67.6
2023-04-02T14:59:30.490Z,68.2
2023-04-02T15:00:52.906Z,66.9
2023-04-02T15:02:16.329Z,66.4
2023-04-02T15:03:39.737Z,66.7
2023-04-02T15:05:03.145Z,66.4
2023-04-02T15:06:26.577Z,66.8
2023-04-02T15:07:49.976Z,68
2023-04-02T15:09:13.387Z,68.2
2023-04-02T15:10:36.792Z,69
2023-04-02T15:12:00.212Z,68.9
2023-04-02T15:13:23.616Z,69.4
2023-04-02T15:14:47.023Z,68
2023-04-02T15:16:10.433Z,68.4
2023-04-02T15:17:33.835Z,69.5
2023-04-02T15:18:56.272Z,68.8
2023-04-02T15:20:19.684Z,69.7
2023-04-02T15:21:43.102Z,69.2
2023-04-02T15:23:06.506Z,68.9
2023-04-02T15:24:29.925Z,68.7
2023-04-02T15:25:53.348Z,68.8
2023-04-02T15:27:16.751Z,68.3
2023-04-02T15:28:40.149Z,68.6
2023-04-02T15:30:03.570Z,68.7
2023-04-02T15:31:26.967Z,69.3
2023-04-02T15:32:50.381Z,68.9
2023-04-02T15:34:13.799Z,67
2023-04-02T15:35:37.202Z,67.5
2023-04-02T15:36:59.618Z,67.8
2023-04-02T15:38:23.037Z,68.7
2023-04-02T15:39:46.447Z,68.3
2023-04-02T15:41:09.864Z,67.5
2023-04-02T15:42:33.272Z,66.8
2023-04-02T15:43:56.678Z,67.4
2023-04-02T15:45:20.089Z,68.4
2023-04-02T15:46:43.492Z,68.1
2023-04-02T15:48:06.893Z,67.7
2023-04-02T15:49:30.315Z,68.3
2023-04-02T15:50:53.706Z,68.1
2023-04-02T15:52:17.117Z,68.4
2023-04-02T15:53:40.528Z,68
2023-04-02T15:55:02.951Z,68
2023-04-02T15:56:26.372Z,68.4
2023-04-02T15:57:49.768Z,69.4
2023-04-02T15:59:13.195Z,69.7
2023-04-02T16:00:36.597Z,70.3
2023-04-02T16:02:00.015Z,69.6
2023-04-02T16:03:23.409Z,69.3
2023-04-02T16:04:46.833Z,69
2023-04-02T16:06:10.225Z,68.6
2023-04-02T16:07:33.641Z,68.6
2023-04-02T16:08:57.048Z,68.7
2023-04-02T16:10:20.461Z,69.2
2023-04-02T16:11:43.861Z,69.7
2023-04-02T16:13:06.303Z,70.8
2023-04-02T16:14:29.711Z,70.9
2023-04-02T16:15:53.114Z,70.9
2023-04-02T16:17:16.516Z,70.7
2023-04-02T16:18:39.935Z,71.1
2023-04-02T16:20:03.349Z,70.4
2023-04-02T16:21:26.745Z,70.7
2023-04-02T16:22:50.163Z,71.4
2023-04-02T16:24:13.564Z,70.8
2023-04-02T16:25:36.977Z,70.7
2023-04-02T16:27:00.375Z,71
2023-04-02T16:28:23.785Z,71.9
2023-04-02T16:29:47.202Z,71.3
2023-04-02T16:31:09.636Z,71.6
2023-04-02T16:32:33.030Z,71.6
2023-04-02T16:33:56.439Z,72.4
2023-04-02T16:35:19.847Z,72
2023-04-02T16:36:43.257Z,72
2023-04-02T16:38:06.677Z,72.5
2023-04-02T16:39:30.071Z,72.4
2023-04-02T16:40:53.500Z,71.8
2023-04-02T16:42:16.900Z,71.2
2023-04-02T16:45:03.707Z,70.3
2023-04-02T16:46:27.129Z,70.4
2023-04-02T16:47:50.540Z,67.4
2023-04-02T16:49:12.958Z,67.3
2023-04-02T16:50:36.366Z,67.5
2023-04-02T16:51:59.774Z,68.5
2023-04-02T16:53:23.188Z,68.2
2023-04-02T16:54:46.589Z,67.7
2023-04-02T16:56:10.005Z,68
2023-04-02T16:57:33.414Z,67.8
2023-04-02T16:58:56.825Z,67
2023-04-02T17:00:20.232Z,67
2023-04-02T17:01:43.628Z,67.3
2023-04-02T17:03:07.049Z,68.1
2023-04-02T17:04:30.455Z,68.3
2023-04-02T17:05:53.874Z,68.7
2023-04-02T17:07:16.293Z,68.1
2023-04-02T17:08:39.699Z,68.5
2023-04-02T17:10:03.105Z,69
2023-04-02T17:11:26.518Z,69.3
2023-04-02T17:12:49.921Z,68.7
2023-04-02T17:14:13.338Z,69.5
2023-04-02T17:15:36.752Z,69.5
2023-04-02T17:17:00.148Z,68.5
2023-04-02T17:18:23.564Z,69.3
2023-04-02T17:19:46.971Z,69.4
2023-04-02T17:21:10.367Z,70
2023-04-02T17:22:33.780Z,70.3
2023-04-02T17:23:57.196Z,70.7
2023-04-02T17:25:19.618Z,71.3
2023-04-02T17:26:43.033Z,70.3
2023-04-02T17:28:06.429Z,71.2
2023-04-02T17:29:29.841Z,71
2023-04-02T17:30:53.254Z,71.8
2023-04-02T17:32:16.665Z,71
2023-04-02T17:33:40.062Z,71.4
2023-04-02T17:35:03.477Z,70.8
2023-04-02T17:36:26.896Z,71.6
2023-04-02T17:37:50.295Z,71.7
2023-04-02T17:39:13.706Z,72
2023-04-02T17:40:37.120Z,71.4
2023-04-02T17:42:00.518Z,71.1
2023-04-02T17:43:22.939Z,71.6
2023-04-02T17:44:46.352Z,71.4
2023-04-02T17:46:09.773Z,71.2
2023-04-02T17:47:33.177Z,71.7
2023-04-02T17:48:56.583Z,70.9
2023-04-02T17:50:19.990Z,70.9
2023-04-02T17:51:42.417Z,71.1
2023-04-02T17:53:05.826Z,71.3
2023-04-02T17:54:29.230Z,71.9
2023-04-02T17:55:52.639Z,72
2023-04-02T17:57:16.047Z,72.6
2023-04-02T17:58:39.469Z,72.9
2023-04-02T18:00:02.862Z,73
2023-04-02T18:01:26.268Z,72.5
2023-04-02T18:02:49.726Z,73.3
2023-04-02T18:04:13.179Z,73.9
2023-04-02T18:05:36.629Z,73.5
2023-04-02T18:07:00.069Z,73.5
2023-04-02T18:08:23.475Z,74.4
2023-04-02T18:09:45.898Z,74.7
2023-04-02T18:11:09.354Z,75
2023-04-02T18:12:32.807Z,74.3
2023-04-02T18:13:56.261Z,74
2023-04-02T18:15:19.702Z,74.3
2023-04-02T18:16:43.155Z,74
2023-04-02T18:18:06.609Z,74.6
2023-04-02T18:19:30.067Z,74.8
2023-04-02T18:20:53.510Z,73.9
2023-04-02T18:22:16.971Z,73.2
2023-04-02T18:23:40.419Z,73.5
2023-04-02T18:25:03.872Z,73.5
2023-04-02T18:26:27.318Z,73.7
2023-04-02T18:27:49.787Z,73.2
2023-04-02T18:29:13.225Z,73.7
2023-04-02T18:30:36.670Z,74.3
2023-04-02T18:32:00.116Z,74.5
2023-04-02T18:33:23.576Z,73.9
2023-04-02T18:34:47.027Z,74.3
2023-04-02T18:36:10.463Z,74.2
2023-04-02T18:37:33.925Z,73.8
2023-04-02T18:38:57.373Z,73.6
2023-04-02T18:40:20.819Z,74.6
2023-04-02T18:41:44.277Z,74.6
2023-04-02T18:43:07.718Z,75.2
2023-04-02T18:44:31.185Z,75.9
2023-04-02T18:45:53.643Z,76.8
2023-04-02T18:47:17.100Z,77.3
2023-04-02T18:48:40.542Z,78.6
2023-04-02T18:50:04.006Z,78.9
2023-04-02T18:51:27.440Z,78.5
2023-04-02T18:52:50.896Z,78.7
2023-04-02T18:54:14.350Z,77.7
2023-04-02T18:55:37.784Z,76.7
2023-04-02T18:57:01.251Z,75.9
2023-04-02T18:58:24.685Z,75.9
2023-04-02T18:59:48.151Z,75.3
2023-04-02T19:01:11.600Z,74.9
2023-04-02T19:02:35.039Z,75.1
2023-04-02T19:03:57.504Z,75
2023-04-02T19:05:20.962Z,75.2
2023-04-02T19:06:44.402Z,74.7
2023-04-02T19:08:07.868Z,74.9
2023-04-02T19:09:31.316Z,75.2
2023-04-02T19:10:54.764Z,75.8
2023-04-02T19:12:18.214Z,76.3
2023-04-02T19:13:41.667Z,77.3
2023-04-02T19:15:05.117Z,76.9
2023-04-02T19:16:28.558Z,76.7
2023-04-02T19:17:52.022Z,76.3
2023-04-02T19:19:15.454Z,76.5
2023-04-02T19:20:38.903Z,76.2
2023-04-02T19:22:01.387Z,76.8
2023-04-02T19:23:24.837Z,76.5
2023-04-02T19:24:48.273Z,76.4
2023-04-02T19:26:11.720Z,76.6
2023-04-02T19:27:35.176Z,76.4
2023-04-02T19:28:58.620Z,76.2
2023-04-02T19:30:22.070Z,76.6
2023-04-02T19:31:45.532Z,76.5
2023-04-02T19:33:08.967Z,77.2
2023-04-02T19:34:32.433Z,77.1
2023-04-02T19:35:55.877Z,76.7
2023-04-02T19:37:19.316Z,76.9
2023-04-02T19:38:42.775Z,76.9
2023-04-02T19:40:05.242Z,76.5
2023-04-02T19:41:28.681Z,76.7
2023-04-02T19:42:52.146Z,76.7
2023-04-02T19:44:15.584Z,76.4
2023-04-02T19:45:39.040Z,76.2
2023-04-02T19:47:02.483Z,76.1
2023-04-02T19:48:25.935Z,76.6
2023-04-02T19:49:49.386Z,76.5
2023-04-02T19:51:12.832Z,75.9
2023-04-02T19:52:36.282Z,76.5
2023-04-02T19:53:59.745Z,76.1
2023-04-02T19:56:46.583Z,75.6
2023-04-02T19:58:09.048Z,75.8
2023-04-02T19:59:32.511Z,75.9
2023-04-02T20:00:55.946Z,76.1
2023-04-02T20:02:19.405Z,76.4
2023-04-02T20:03:42.867Z,76.4
2023-04-02T20:05:06.303Z,76.1
2023-04-02T20:06:29.753Z,76.4
2023-04-02T20:07:53.213Z,76.4
2023-04-02T20:09:16.650Z,74.9
2023-04-02T20:24:39.957Z,75.1
2023-04-02T20:40:03.278Z,72.8
2023-04-02T20:55:26.580Z,72.9
2023-04-02T21:10:49.890Z,73
2023-04-02T21:26:12.198Z,73.1
2023-04-02T21:41:35.502Z,74
2023-04-02T21:56:58.806Z,75
2023-04-02T22:12:22.118Z,75.7
2023-04-02T22:27:45.426Z,76.6
2023-04-02T22:43:08.721Z,77
2023-04-02T22:58:32.033Z,77.6
2023-04-02T23:13:55.345Z,78.2
2023-04-02T23:29:18.643Z,78.3
2023-04-02T23:44:41.953Z,79.1
